Wednesday, September 17, 2014, 9:31 AM EDT

KFDK, Frederick, Frederick Municipal Airport

Location: Frederick, MD, United States Lat: 39.417
Local Time: 9:31 AM EDT (13:31 GMT) Lon: -77.374
Time Zone: US/Eastern Elev: 301 ft

Show me the last for .
Show Decoded

2014-09-17 08:45 METAR KFDK 171245Z 00000KT 10SM SKC 14/13 A3011 =
2014-09-17 07:55 METAR KFDK 171155Z 00000KT 10SM SKC 11/11 A3011 =
2014-09-17 06:47 METAR KFDK 171047Z 00000KT 5SM BCFG SKC 10/09 A3009 =
2014-09-17 06:30 METAR KFDK 171030Z AUTO 00000KT 1/2SM FG BKN002 09/09 A3009 RMK AO2 LTG DSNT W =
2014-09-17 06:10 METAR KFDK 171010Z AUTO 00000KT 3/4SM BR BKN002 09/09 A3008 RMK AO2 =
2014-09-17 05:50 METAR KFDK 170950Z AUTO 00000KT 1/2SM FG OVC002 09/08 A3008 RMK AO2 =
2014-09-17 05:30 METAR KFDK 170930Z AUTO 00000KT 1/2SM FG OVC002 10/10 A3008 RMK AO2 =
2014-09-17 05:10 METAR KFDK 170910Z AUTO 00000KT 3/4SM BR OVC002 10/09 A3008 RMK AO2 =
2014-09-17 04:50 METAR KFDK 170850Z AUTO 00000KT 1/4SM FG OVC002 10/10 A3008 RMK AO2 =
2014-09-17 04:30 METAR KFDK 170830Z AUTO 00000KT 1/4SM FG OVC002 10/10 A3008 RMK AO2 =
2014-09-17 04:10 METAR KFDK 170810Z AUTO 00000KT 1/2SM FG OVC002 10/10 A3008 RMK AO2 =
2014-09-17 03:50 METAR KFDK 170750Z AUTO 00000KT 1/2SM FG BKN002 11/10 A3008 RMK AO2 =
2014-09-17 03:30 METAR KFDK 170730Z AUTO 00000KT 7SM CLR 10/10 A3008 RMK AO2 =
2014-09-17 03:10 METAR KFDK 170710Z AUTO 00000KT 1/2SM FG SCT002 11/10 A3008 RMK AO2 =
2014-09-17 02:50 METAR KFDK 170650Z AUTO 00000KT 1SM BR BKN002 11/10 A3009 RMK AO2 =
2014-09-17 02:30 METAR KFDK 170630Z AUTO 10003KT 1 1/2SM BR VV007 11/11 A3009 RMK AO2 =
2014-09-17 02:10 METAR KFDK 170610Z AUTO 00000KT 10SM CLR 12/11 A3009 RMK AO2 =
2014-09-17 01:50 METAR KFDK 170550Z AUTO 00000KT 1 1/2SM BR VV007 11/11 A3008 RMK AO2 =
2014-09-17 01:30 METAR KFDK 170530Z AUTO 00000KT 2 1/2SM BR SCT002 12/11 A3008 RMK AO2 VIS 1/2V5
                 =
2014-09-17 01:10 METAR KFDK 170510Z AUTO 00000KT 10SM CLR 12/12 A3008 RMK AO2 =
2014-09-17 00:50 METAR KFDK 170450Z AUTO 22003KT 7SM CLR 12/11 A3008 RMK AO2 =
2014-09-17 00:30 METAR KFDK 170430Z AUTO 00000KT 7SM CLR 12/12 A3008 RMK AO2 =
2014-09-17 00:10 METAR KFDK 170410Z AUTO 00000KT 10SM CLR 12/11 A3008 RMK AO2 =
2014-09-16 23:50 METAR KFDK 170350Z AUTO 00000KT 10SM CLR 12/11 A3008 RMK AO2 =
2014-09-16 23:30 METAR KFDK 170330Z AUTO 00000KT 10SM CLR 12/11 A3007 RMK AO2 =
2014-09-16 23:10 METAR KFDK 170310Z AUTO 00000KT 10SM CLR 12/12 A3007 RMK AO2 =
2014-09-16 22:50 METAR KFDK 170250Z AUTO 00000KT 10SM CLR 13/12 A3007 RMK AO2 =
2014-09-16 22:30 METAR KFDK 170230Z AUTO 00000KT 10SM CLR 14/11 A3007 RMK AO2 =
2014-09-16 22:10 METAR KFDK 170210Z AUTO 00000KT 10SM CLR 16/12 A3007 RMK AO2 =
2014-09-16 21:50 METAR KFDK 170150Z AUTO 00000KT 10SM CLR 15/12 A3007 RMK AO2 =
2014-09-16 21:30 METAR KFDK 170130Z AUTO 36004KT 10SM CLR 15/12 A3006 RMK AO2 =
2014-09-16 21:10 METAR KFDK 170110Z AUTO 33004KT 10SM CLR 16/12 A3006 RMK AO2 =
2014-09-16 20:50 METAR KFDK 170050Z AUTO 04005KT 10SM SCT065 15/13 A3006 RMK AO2 =
2014-09-16 19:47 METAR KFDK 162347Z 00000KT 10SM SCT065 18/14 A3005 =
2014-09-16 18:50 METAR KFDK 162250Z VRB04KT 10SM BKN065 22/12 A3004 =
2014-09-16 17:45 METAR KFDK 162145Z 36005KT 10SM BKN065 23/12 A3004 =
2014-09-16 16:51 METAR KFDK 162051Z 35007KT 10SM BKN065 24/11 A3003 =
2014-09-16 15:59 METAR KFDK 161959Z 33006KT 10SM BKN055 25/11 A3003 =
2014-09-16 14:45 METAR KFDK 161845Z 33008KT 10SM SCT047 BKN055 24/12 A3004 =
2014-09-16 13:50 METAR KFDK 161750Z 32012KT 10SM BKN055 26/13 A3004 =
2014-09-16 12:45 METAR KFDK 161645Z 34012KT 10SM SCT050 26/13 A3005 =
2014-09-16 11:50 METAR KFDK 161550Z 34007KT 10SM BKN045 22/14 A3007 =
2014-09-16 10:52 METAR KFDK 161452Z 00000KT 10SM BKN035 22/14 A3008 =
2014-09-16 09:50 METAR KFDK 161350Z VRB03KT 10SM SCT032 SCT042 21/13 A3008 =

Support USWX by starting your Amazon purchase here.